sensor_id;sensor_type;location;lat;lon;timestamp;pressure;altitude;pressure_sealevel;temperature;humidity
62057;BME280;48016;50.284;18.860;2023-05-03T00:02:21;98776.64;;;11.51;80.92
62057;BME280;48016;50.284;18.860;2023-05-03T00:04:51;98778.85;;;11.50;81.15
62057;BME280;48016;50.284;18.860;2023-05-03T00:07:19;98775.26;;;11.52;81.11
62057;BME280;48016;50.284;18.860;2023-05-03T00:09:47;98779.31;;;11.56;81.09
62057;BME280;48016;50.284;18.860;2023-05-03T00:12:15;98774.20;;;11.58;81.04
62057;BME280;48016;50.284;18.860;2023-05-03T00:14:41;98776.34;;;11.60;81.01
62057;BME280;48016;50.284;18.860;2023-05-03T00:17:08;98773.25;;;11.60;81.09
62057;BME280;48016;50.284;18.860;2023-05-03T00:19:35;98776.11;;;11.59;81.11
62057;BME280;48016;50.284;18.860;2023-05-03T00:22:02;98772.71;;;11.56;81.16
62057;BME280;48016;50.284;18.860;2023-05-03T00:24:29;98769.52;;;11.57;81.08
62057;BME280;48016;50.284;18.860;2023-05-03T00:26:55;98769.89;;;11.56;81.06
62057;BME280;48016;50.284;18.860;2023-05-03T00:29:22;98770.09;;;11.55;81.14
62057;BME280;48016;50.284;18.860;2023-05-03T00:31:49;98766.04;;;11.52;81.19
62057;BME280;48016;50.284;18.860;2023-05-03T00:34:15;98765.95;;;11.49;81.39
62057;BME280;48016;50.284;18.860;2023-05-03T00:36:42;98768.25;;;11.47;81.33
62057;BME280;48016;50.284;18.860;2023-05-03T00:39:08;98769.52;;;11.46;81.30
62057;BME280;48016;50.284;18.860;2023-05-03T00:41:38;98771.89;;;11.44;81.38
62057;BME280;48016;50.284;18.860;2023-05-03T00:44:05;98768.33;;;11.42;81.23
62057;BME280;48016;50.284;18.860;2023-05-03T00:46:31;98767.96;;;11.42;81.22
62057;BME280;48016;50.284;18.860;2023-05-03T00:48:58;98766.73;;;11.43;81.36
62057;BME280;48016;50.284;18.860;2023-05-03T00:51:26;98767.73;;;11.45;81.36
62057;BME280;48016;50.284;18.860;2023-05-03T00:53:53;98769.98;;;11.47;81.23
62057;BME280;48016;50.284;18.860;2023-05-03T00:56:20;98767.96;;;11.46;81.36
62057;BME280;48016;50.284;18.860;2023-05-03T00:58:50;98770.48;;;11.44;81.36
62057;BME280;48016;50.284;18.860;2023-05-03T01:01:17;98769.77;;;11.43;81.40
62057;BME280;48016;50.284;18.860;2023-05-03T01:03:44;98767.61;;;11.41;81.60
62057;BME280;48016;50.284;18.860;2023-05-03T01:08:57;98768.45;;;11.35;81.75
62057;BME280;48016;50.284;18.860;2023-05-03T01:11:33;98770.11;;;11.34;81.77
62057;BME280;48016;50.284;18.860;2023-05-03T01:19:01;98774.78;;;11.31;81.77
62057;BME280;48016;50.284;18.860;2023-05-03T01:21:30;98774.91;;;11.33;81.75
62057;BME280;48016;50.284;18.860;2023-05-03T01:24:05;98775.45;;;11.32;81.78
62057;BME280;48016;50.284;18.860;2023-05-03T01:26:33;98781.37;;;11.33;81.93
62057;BME280;48016;50.284;18.860;2023-05-03T01:28:59;98779.99;;;11.36;81.96
62057;BME280;48016;50.284;18.860;2023-05-03T01:31:50;98779.02;;;11.35;81.92
62057;BME280;48016;50.284;18.860;2023-05-03T01:34:32;98780.45;;;11.33;82.07
62057;BME280;48016;50.284;18.860;2023-05-03T01:37:03;98779.10;;;11.30;82.43
62057;BME280;48016;50.284;18.860;2023-05-03T01:42:03;98784.23;;;11.28;82.55
62057;BME280;48016;50.284;18.860;2023-05-03T01:44:31;98785.46;;;11.32;82.47
62057;BME280;48016;50.284;18.860;2023-05-03T01:46:58;98785.47;;;11.37;82.40
62057;BME280;48016;50.284;18.860;2023-05-03T01:49:27;98787.54;;;11.38;82.26
62057;BME280;48016;50.284;18.860;2023-05-03T01:51:53;98788.56;;;11.37;82.30
62057;BME280;48016;50.284;18.860;2023-05-03T01:54:20;98788.42;;;11.34;82.27
62057;BME280;48016;50.284;18.860;2023-05-03T01:56:47;98789.58;;;11.31;82.57
62057;BME280;48016;50.284;18.860;2023-05-03T01:59:13;98788.85;;;11.30;82.84
62057;BME280;48016;50.284;18.860;2023-05-03T02:01:40;98788.36;;;11.30;82.93
62057;BME280;48016;50.284;18.860;2023-05-03T02:04:07;98791.68;;;11.32;82.81
62057;BME280;48016;50.284;18.860;2023-05-03T02:06:33;98788.81;;;11.35;82.65
62057;BME280;48016;50.284;18.860;2023-05-03T02:09:00;98786.27;;;11.35;82.62
62057;BME280;48016;50.284;18.860;2023-05-03T02:11:26;98785.65;;;11.37;82.66
62057;BME280;48016;50.284;18.860;2023-05-03T02:13:53;98788.96;;;11.39;82.66
62057;BME280;48016;50.284;18.860;2023-05-03T02:16:20;98789.28;;;11.41;82.62
62057;BME280;48016;50.284;18.860;2023-05-03T02:18:46;98788.35;;;11.45;82.64
62057;BME280;48016;50.284;18.860;2023-05-03T02:21:13;98788.10;;;11.46;82.53
62057;BME280;48016;50.284;18.860;2023-05-03T02:23:40;98789.26;;;11.47;82.54
62057;BME280;48016;50.284;18.860;2023-05-03T02:26:07;98788.38;;;11.49;82.77
62057;BME280;48016;50.284;18.860;2023-05-03T02:28:33;98788.33;;;11.49;82.61
62057;BME280;48016;50.284;18.860;2023-05-03T02:31:00;98788.81;;;11.49;82.62
62057;BME280;48016;50.284;18.860;2023-05-03T02:33:27;98789.58;;;11.50;82.66
62057;BME280;48016;50.284;18.860;2023-05-03T02:35:53;98792.27;;;11.50;82.60
62057;BME280;48016;50.284;18.860;2023-05-03T02:38:20;98793.23;;;11.49;82.79
62057;BME280;48016;50.284;18.860;2023-05-03T02:40:46;98791.84;;;11.50;82.69
62057;BME280;48016;50.284;18.860;2023-05-03T02:43:13;98793.25;;;11.50;82.57
62057;BME280;48016;50.284;18.860;2023-05-03T02:45:42;98797.61;;;11.52;82.43
62057;BME280;48016;50.284;18.860;2023-05-03T02:48:08;98800.01;;;11.53;82.37
62057;BME280;48016;50.284;18.860;2023-05-03T02:50:36;98803.95;;;11.52;82.23
62057;BME280;48016;50.284;18.860;2023-05-03T02:53:02;98803.56;;;11.48;82.21
62057;BME280;48016;50.284;18.860;2023-05-03T02:55:29;98801.29;;;11.48;81.99
62057;BME280;48016;50.284;18.860;2023-05-03T02:57:56;98801.98;;;11.43;82.16
62057;BME280;48016;50.284;18.860;2023-05-03T03:00:23;98805.21;;;11.39;82.13
62057;BME280;48016;50.284;18.860;2023-05-03T03:02:50;98808.36;;;11.39;82.20
62057;BME280;48016;50.284;18.860;2023-05-03T03:05:16;98810.80;;;11.40;82.02
62057;BME280;48016;50.284;18.860;2023-05-03T03:07:43;98811.42;;;11.42;81.88
62057;BME280;48016;50.284;18.860;2023-05-03T03:10:10;98812.39;;;11.41;81.94
62057;BME280;48016;50.284;18.860;2023-05-03T03:12:36;98814.61;;;11.41;82.05
62057;BME280;48016;50.284;18.860;2023-05-03T03:15:04;98815.59;;;11.41;82.17
62057;BME280;48016;50.284;18.860;2023-05-03T03:17:31;98816.23;;;11.43;81.99
62057;BME280;48016;50.284;18.860;2023-05-03T03:19:57;98818.55;;;11.43;81.85
62057;BME280;48016;50.284;18.860;2023-05-03T03:22:24;98816.12;;;11.40;81.65
62057;BME280;48016;50.284;18.860;2023-05-03T03:24:52;98808.66;;;11.37;81.75
62057;BME280;48016;50.284;18.860;2023-05-03T03:27:18;98809.23;;;11.32;82.10
62057;BME280;48016;50.284;18.860;2023-05-03T03:29:46;98815.26;;;11.26;81.95
62057;BME280;48016;50.284;18.860;2023-05-03T03:32:13;98811.61;;;11.24;82.05
62057;BME280;48016;50.284;18.860;2023-05-03T03:34:40;98814.64;;;11.16;81.99
62057;BME280;48016;50.284;18.860;2023-05-03T03:37:07;98815.02;;;11.09;82.08
62057;BME280;48016;50.284;18.860;2023-05-03T03:39:33;98818.42;;;11.01;82.11
62057;BME280;48016;50.284;18.860;2023-05-03T03:42:00;98818.64;;;10.95;81.95
62057;BME280;48016;50.284;18.860;2023-05-03T03:44:28;98819.73;;;10.92;82.25
62057;BME280;48016;50.284;18.860;2023-05-03T03:46:54;98821.25;;;10.89;82.34
62057;BME280;48016;50.284;18.860;2023-05-03T03:49:21;98825.51;;;10.91;82.14
62057;BME280;48016;50.284;18.860;2023-05-03T03:51:47;98828.33;;;10.91;82.05
62057;BME280;48016;50.284;18.860;2023-05-03T03:54:14;98829.45;;;10.92;81.93
62057;BME280;48016;50.284;18.860;2023-05-03T03:56:41;98831.80;;;10.92;82.12
62057;BME280;48016;50.284;18.860;2023-05-03T03:59:07;98833.77;;;10.94;82.09
62057;BME280;48016;50.284;18.860;2023-05-03T04:01:34;98834.66;;;10.96;82.23
62057;BME280;48016;50.284;18.860;2023-05-03T04:04:01;98841.83;;;10.97;82.24
62057;BME280;48016;50.284;18.860;2023-05-03T04:06:27;98845.52;;;11.00;82.28
62057;BME280;48016;50.284;18.860;2023-05-03T04:08:54;98850.43;;;11.03;82.16
62057;BME280;48016;50.284;18.860;2023-05-03T04:11:20;98852.20;;;11.02;81.93
62057;BME280;48016;50.284;18.860;2023-05-03T04:13:47;98854.27;;;10.99;81.93
62057;BME280;48016;50.284;18.860;2023-05-03T04:16:14;98858.06;;;10.97;81.91
62057;BME280;48016;50.284;18.860;2023-05-03T04:18:42;98858.20;;;10.96;81.79
62057;BME280;48016;50.284;18.860;2023-05-03T04:21:08;98864.66;;;10.91;81.72
62057;BME280;48016;50.284;18.860;2023-05-03T04:23:35;98865.80;;;10.82;81.68
62057;BME280;48016;50.284;18.860;2023-05-03T04:26:02;98864.23;;;10.82;81.56
62057;BME280;48016;50.284;18.860;2023-05-03T04:28:28;98865.70;;;10.82;81.49
62057;BME280;48016;50.284;18.860;2023-05-03T04:30:55;98868.80;;;10.83;81.35
62057;BME280;48016;50.284;18.860;2023-05-03T04:33:24;98871.13;;;10.86;81.05
62057;BME280;48016;50.284;18.860;2023-05-03T04:35:51;98873.66;;;10.89;80.99
62057;BME280;48016;50.284;18.860;2023-05-03T04:38:18;98874.70;;;10.90;80.74
62057;BME280;48016;50.284;18.860;2023-05-03T04:40:45;98880.06;;;10.93;80.54
62057;BME280;48016;50.284;18.860;2023-05-03T04:43:12;98885.08;;;10.92;80.46
62057;BME280;48016;50.284;18.860;2023-05-03T04:45:39;98888.63;;;10.91;80.29
62057;BME280;48016;50.284;18.860;2023-05-03T04:48:06;98893.24;;;10.89;80.11
62057;BME280;48016;50.284;18.860;2023-05-03T04:50:33;98893.34;;;10.81;80.00
62057;BME280;48016;50.284;18.860;2023-05-03T04:52:59;98900.76;;;10.77;79.92
62057;BME280;48016;50.284;18.860;2023-05-03T04:55:27;98901.79;;;10.74;79.85
62057;BME280;48016;50.284;18.860;2023-05-03T04:57:54;98902.13;;;10.71;79.83
62057;BME280;48016;50.284;18.860;2023-05-03T05:00:20;98908.73;;;10.72;79.79
62057;BME280;48016;50.284;18.860;2023-05-03T05:02:47;98908.28;;;10.71;79.60
62057;BME280;48016;50.284;18.860;2023-05-03T05:05:14;98910.33;;;10.71;79.59
62057;BME280;48016;50.284;18.860;2023-05-03T05:07:41;98915.83;;;10.72;79.58
62057;BME280;48016;50.284;18.860;2023-05-03T05:10:08;98918.27;;;10.73;79.47
62057;BME280;48016;50.284;18.860;2023-05-03T05:12:35;98919.84;;;10.73;79.48
62057;BME280;48016;50.284;18.860;2023-05-03T05:15:01;98920.94;;;10.76;79.32
62057;BME280;48016;50.284;18.860;2023-05-03T05:17:28;98921.92;;;10.77;79.03
62057;BME280;48016;50.284;18.860;2023-05-03T05:19:55;98928.30;;;10.71;78.89
62057;BME280;48016;50.284;18.860;2023-05-03T05:22:22;98926.02;;;10.66;78.93
62057;BME280;48016;50.284;18.860;2023-05-03T05:24:48;98927.77;;;10.63;78.89
62057;BME280;48016;50.284;18.860;2023-05-03T05:27:15;98926.98;;;10.62;78.72
62057;BME280;48016;50.284;18.860;2023-05-03T05:29:42;98929.49;;;10.63;78.71
62057;BME280;48016;50.284;18.860;2023-05-03T05:32:08;98933.10;;;10.66;78.63
62057;BME280;48016;50.284;18.860;2023-05-03T05:34:35;98934.14;;;10.66;78.47
62057;BME280;48016;50.284;18.860;2023-05-03T05:37:01;98936.89;;;10.66;78.32
62057;BME280;48016;50.284;18.860;2023-05-03T05:39:30;98939.92;;;10.66;78.15
62057;BME280;48016;50.284;18.860;2023-05-03T05:41:57;98945.21;;;10.60;78.00
62057;BME280;48016;50.284;18.860;2023-05-03T05:44:23;98944.98;;;10.49;77.93
62057;BME280;48016;50.284;18.860;2023-05-03T05:46:50;98950.23;;;10.44;78.08
62057;BME280;48016;50.284;18.860;2023-05-03T05:49:17;98950.77;;;10.44;77.78
62057;BME280;48016;50.284;18.860;2023-05-03T05:51:44;98951.41;;;10.41;77.60
62057;BME280;48016;50.284;18.860;2023-05-03T05:54:11;98949.58;;;10.38;77.41
62057;BME280;48016;50.284;18.860;2023-05-03T05:56:37;98953.27;;;10.37;77.29
62057;BME280;48016;50.284;18.860;2023-05-03T05:59:04;98952.89;;;10.34;77.07
62057;BME280;48016;50.284;18.860;2023-05-03T06:01:31;98955.70;;;10.34;77.19
62057;BME280;48016;50.284;18.860;2023-05-03T06:03:58;98961.29;;;10.35;77.26
62057;BME280;48016;50.284;18.860;2023-05-03T06:06:25;98957.09;;;10.33;77.18
62057;BME280;48016;50.284;18.860;2023-05-03T06:08:52;98957.88;;;10.35;77.14
62057;BME280;48016;50.284;18.860;2023-05-03T06:11:19;98957.77;;;10.39;77.02
62057;BME280;48016;50.284;18.860;2023-05-03T06:13:46;98955.93;;;10.46;76.96
62057;BME280;48016;50.284;18.860;2023-05-03T06:16:13;98961.64;;;10.49;76.76
62057;BME280;48016;50.284;18.860;2023-05-03T06:18:39;98968.23;;;10.54;76.63
62057;BME280;48016;50.284;18.860;2023-05-03T06:21:06;98968.56;;;10.59;76.47
62057;BME280;48016;50.284;18.860;2023-05-03T06:23:33;98971.27;;;10.65;76.26
62057;BME280;48016;50.284;18.860;2023-05-03T06:26:00;98976.21;;;10.69;76.13
62057;BME280;48016;50.284;18.860;2023-05-03T06:28:27;98975.10;;;10.70;75.96
62057;BME280;48016;50.284;18.860;2023-05-03T06:30:53;98971.52;;;10.79;75.93
62057;BME280;48016;50.284;18.860;2023-05-03T06:33:20;98974.33;;;10.91;75.24
62057;BME280;48016;50.284;18.860;2023-05-03T06:35:47;98976.23;;;10.99;75.17
62057;BME280;48016;50.284;18.860;2023-05-03T06:38:14;98980.05;;;11.12;74.91
62057;BME280;48016;50.284;18.860;2023-05-03T06:40:40;98984.52;;;11.28;74.64
62057;BME280;48016;50.284;18.860;2023-05-03T06:43:07;98984.55;;;11.45;73.91
62057;BME280;48016;50.284;18.860;2023-05-03T06:45:34;98989.98;;;11.58;72.95
62057;BME280;48016;50.284;18.860;2023-05-03T06:48:01;98987.08;;;11.72;72.71
62057;BME280;48016;50.284;18.860;2023-05-03T06:50:27;98991.63;;;11.91;72.35
62057;BME280;48016;50.284;18.860;2023-05-03T06:52:54;98995.52;;;12.07;71.35
62057;BME280;48016;50.284;18.860;2023-05-03T06:55:21;98997.79;;;12.24;71.33
62057;BME280;48016;50.284;18.860;2023-05-03T06:57:47;98997.17;;;12.50;71.43
62057;BME280;48016;50.284;18.860;2023-05-03T07:00:14;98995.18;;;12.77;70.76
62057;BME280;48016;50.284;18.860;2023-05-03T07:02:41;98997.73;;;13.02;68.77
62057;BME280;48016;50.284;18.860;2023-05-03T07:05:08;98997.50;;;13.22;67.83
62057;BME280;48016;50.284;18.860;2023-05-03T07:07:35;99004.05;;;13.43;66.90
62057;BME280;48016;50.284;18.860;2023-05-03T07:10:02;99001.50;;;13.59;65.68
62057;BME280;48016;50.284;18.860;2023-05-03T07:12:29;98997.34;;;13.68;64.78
62057;BME280;48016;50.284;18.860;2023-05-03T07:14:56;99000.71;;;13.73;64.83
62057;BME280;48016;50.284;18.860;2023-05-03T07:17:24;98998.90;;;13.83;64.14
62057;BME280;48016;50.284;18.860;2023-05-03T07:19:51;98997.29;;;13.87;63.44
62057;BME280;48016;50.284;18.860;2023-05-03T07:22:18;98996.84;;;13.79;60.17
62057;BME280;48016;50.284;18.860;2023-05-03T07:24:53;98998.27;;;13.69;61.06
62057;BME280;48016;50.284;18.860;2023-05-03T07:27:25;99001.38;;;13.64;61.64
62057;BME280;48016;50.284;18.860;2023-05-03T07:29:52;99005.29;;;13.68;61.83
62057;BME280;48016;50.284;18.860;2023-05-03T07:32:18;99007.28;;;13.73;61.83
62057;BME280;48016;50.284;18.860;2023-05-03T07:34:46;99004.06;;;13.78;61.53
62057;BME280;48016;50.284;18.860;2023-05-03T07:37:13;99002.30;;;13.82;61.52
62057;BME280;48016;50.284;18.860;2023-05-03T07:39:40;99007.73;;;13.88;61.36
62057;BME280;48016;50.284;18.860;2023-05-03T07:42:07;99005.70;;;13.85;61.26
62057;BME280;48016;50.284;18.860;2023-05-03T07:44:33;99008.22;;;13.88;61.24
62057;BME280;48016;50.284;18.860;2023-05-03T07:47:00;99008.23;;;13.94;61.52
62057;BME280;48016;50.284;18.860;2023-05-03T07:49:27;99009.14;;;14.00;60.86
62057;BME280;48016;50.284;18.860;2023-05-03T07:51:53;99010.66;;;13.95;60.47
62057;BME280;48016;50.284;18.860;2023-05-03T07:54:20;99010.32;;;13.84;60.40
62057;BME280;48016;50.284;18.860;2023-05-03T07:56:46;99008.74;;;13.79;60.47
62057;BME280;48016;50.284;18.860;2023-05-03T07:59:13;99010.60;;;13.79;60.28
62057;BME280;48016;50.284;18.860;2023-05-03T08:01:40;99015.45;;;13.82;59.97
62057;BME280;48016;50.284;18.860;2023-05-03T08:04:07;99016.23;;;13.77;60.04
62057;BME280;48016;50.284;18.860;2023-05-03T08:06:33;99014.73;;;13.75;59.66
62057;BME280;48016;50.284;18.860;2023-05-03T08:09:00;99016.02;;;13.83;59.95
62057;BME280;48016;50.284;18.860;2023-05-03T08:11:27;99015.34;;;13.94;60.35
62057;BME280;48016;50.284;18.860;2023-05-03T08:13:55;99015.59;;;13.99;60.31
62057;BME280;48016;50.284;18.860;2023-05-03T08:16:22;99017.62;;;13.99;60.40
62057;BME280;48016;50.284;18.860;2023-05-03T08:18:49;99018.05;;;13.93;60.24
62057;BME280;48016;50.284;18.860;2023-05-03T08:21:15;99017.66;;;13.91;60.51
62057;BME280;48016;50.284;18.860;2023-05-03T08:23:42;99019.97;;;13.83;60.02
62057;BME280;48016;50.284;18.860;2023-05-03T08:26:10;99020.44;;;13.62;58.89
62057;BME280;48016;50.284;18.860;2023-05-03T08:28:39;99020.33;;;13.46;59.27
62057;BME280;48016;50.284;18.860;2023-05-03T08:31:06;99019.61;;;13.49;59.42
62057;BME280;48016;50.284;18.860;2023-05-03T08:33:33;99024.76;;;13.53;59.13
62057;BME280;48016;50.284;18.860;2023-05-03T08:35:59;99025.08;;;13.48;58.79
62057;BME280;48016;50.284;18.860;2023-05-03T08:38:26;99022.38;;;13.40;58.61
62057;BME280;48016;50.284;18.860;2023-05-03T08:40:54;99028.44;;;13.36;59.00
62057;BME280;48016;50.284;18.860;2023-05-03T08:43:26;99028.52;;;13.35;59.55
62057;BME280;48016;50.284;18.860;2023-05-03T08:45:53;99038.20;;;13.34;59.56
62057;BME280;48016;50.284;18.860;2023-05-03T08:48:19;99041.80;;;13.27;59.39
62057;BME280;48016;50.284;18.860;2023-05-03T08:50:48;99040.78;;;13.17;59.66
62057;BME280;48016;50.284;18.860;2023-05-03T08:53:16;99046.25;;;13.15;59.85
62057;BME280;48016;50.284;18.860;2023-05-03T08:55:44;99045.54;;;13.14;59.85
62057;BME280;48016;50.284;18.860;2023-05-03T08:58:10;99048.13;;;13.12;59.95
62057;BME280;48016;50.284;18.860;2023-05-03T09:00:38;99052.16;;;13.06;59.86
62057;BME280;48016;50.284;18.860;2023-05-03T09:03:05;99051.45;;;12.97;60.10
62057;BME280;48016;50.284;18.860;2023-05-03T09:05:33;99052.66;;;13.01;59.85
62057;BME280;48016;50.284;18.860;2023-05-03T09:10:31;99054.79;;;12.99;59.25
62057;BME280;48016;50.284;18.860;2023-05-03T09:13:00;99057.16;;;12.93;59.18
62057;BME280;48016;50.284;18.860;2023-05-03T09:15:28;99055.70;;;12.91;59.37
62057;BME280;48016;50.284;18.860;2023-05-03T09:18:16;99056.65;;;12.96;59.51
62057;BME280;48016;50.284;18.860;2023-05-03T09:20:44;99056.50;;;12.97;59.35
62057;BME280;48016;50.284;18.860;2023-05-03T09:25:54;99054.02;;;12.82;59.69
62057;BME280;48016;50.284;18.860;2023-05-03T09:28:20;99057.73;;;12.74;59.83
62057;BME280;48016;50.284;18.860;2023-05-03T09:30:48;99062.26;;;12.73;60.01
62057;BME280;48016;50.284;18.860;2023-05-03T09:33:15;99061.04;;;12.75;59.97
62057;BME280;48016;50.284;18.860;2023-05-03T09:36:00;99061.77;;;12.80;60.02
62057;BME280;48016;50.284;18.860;2023-05-03T09:38:32;99062.63;;;12.88;59.81
62057;BME280;48016;50.284;18.860;2023-05-03T09:40:59;99064.25;;;12.87;59.70
62057;BME280;48016;50.284;18.860;2023-05-03T09:43:31;99061.27;;;12.90;59.73
62057;BME280;48016;50.284;18.860;2023-05-03T09:46:11;99059.55;;;13.01;59.71
62057;BME280;48016;50.284;18.860;2023-05-03T09:48:38;99060.14;;;13.01;59.33
62057;BME280;48016;50.284;18.860;2023-05-03T09:51:06;99058.21;;;12.99;59.36
62057;BME280;48016;50.284;18.860;2023-05-03T09:53:34;99060.44;;;13.03;59.50
62057;BME280;48016;50.284;18.860;2023-05-03T09:56:08;99060.40;;;13.00;59.08
62057;BME280;48016;50.284;18.860;2023-05-03T09:58:38;99066.91;;;13.04;59.71
62057;BME280;48016;50.284;18.860;2023-05-03T10:01:05;99063.09;;;13.06;59.68
62057;BME280;48016;50.284;18.860;2023-05-03T10:03:43;99062.98;;;13.08;59.85
62057;BME280;48016;50.284;18.860;2023-05-03T10:06:18;99060.98;;;13.10;59.84
62057;BME280;48016;50.284;18.860;2023-05-03T10:08:50;99064.09;;;13.09;59.36
62057;BME280;48016;50.284;18.860;2023-05-03T10:11:18;99065.80;;;12.98;59.64
62057;BME280;48016;50.284;18.860;2023-05-03T10:13:45;99059.17;;;12.98;59.57
62057;BME280;48016;50.284;18.860;2023-05-03T10:16:15;99061.02;;;12.93;59.37
62057;BME280;48016;50.284;18.860;2023-05-03T10:18:58;99061.39;;;12.85;58.76
62057;BME280;48016;50.284;18.860;2023-05-03T10:22:02;99063.43;;;12.71;58.86
62057;BME280;48016;50.284;18.860;2023-05-03T10:24:33;99062.77;;;12.59;59.13
62057;BME280;48016;50.284;18.860;2023-05-03T10:27:00;99063.38;;;12.59;59.51
62057;BME280;48016;50.284;18.860;2023-05-03T10:32:03;99057.86;;;12.69;59.34
62057;BME280;48016;50.284;18.860;2023-05-03T10:34:35;99059.02;;;12.71;59.29
62057;BME280;48016;50.284;18.860;2023-05-03T10:37:09;99057.85;;;12.72;59.01
62057;BME280;48016;50.284;18.860;2023-05-03T10:39:43;99056.35;;;12.77;58.98
62057;BME280;48016;50.284;18.860;2023-05-03T10:42:10;99057.27;;;12.81;58.74
62057;BME280;48016;50.284;18.860;2023-05-03T10:44:49;99060.85;;;12.81;58.57
62057;BME280;48016;50.284;18.860;2023-05-03T10:47:21;99058.42;;;12.85;58.52
62057;BME280;48016;50.284;18.860;2023-05-03T10:55:10;99058.59;;;13.03;57.59
62057;BME280;48016;50.284;18.860;2023-05-03T10:57:40;99057.15;;;13.18;57.42
62057;BME280;48016;50.284;18.860;2023-05-03T11:00:18;99060.95;;;13.30;56.89
62057;BME280;48016;50.284;18.860;2023-05-03T11:03:06;99058.14;;;13.31;56.36
62057;BME280;48016;50.284;18.860;2023-05-03T11:05:37;99056.70;;;13.38;57.07
62057;BME280;48016;50.284;18.860;2023-05-03T11:10:34;99054.89;;;13.68;56.70
62057;BME280;48016;50.284;18.860;2023-05-03T11:13:01;99056.04;;;13.80;56.44
62057;BME280;48016;50.284;18.860;2023-05-03T11:15:27;99055.45;;;13.87;55.38
62057;BME280;48016;50.284;18.860;2023-05-03T11:17:54;99055.96;;;13.90;55.66
62057;BME280;48016;50.284;18.860;2023-05-03T11:20:21;99058.46;;;13.94;55.53
62057;BME280;48016;50.284;18.860;2023-05-03T11:22:48;99056.54;;;13.99;55.49
62057;BME280;48016;50.284;18.860;2023-05-03T11:25:14;99059.26;;;14.06;55.35
62057;BME280;48016;50.284;18.860;2023-05-03T11:27:41;99054.83;;;14.16;55.35
62057;BME280;48016;50.284;18.860;2023-05-03T11:30:08;99056.27;;;14.25;55.17
62057;BME280;48016;50.284;18.860;2023-05-03T11:32:35;99058.07;;;14.27;54.69
62057;BME280;48016;50.284;18.860;2023-05-03T11:35:02;99057.16;;;14.21;54.74
62057;BME280;48016;50.284;18.860;2023-05-03T11:37:31;99054.05;;;14.19;54.99
62057;BME280;48016;50.284;18.860;2023-05-03T11:39:58;99057.95;;;14.17;54.42
62057;BME280;48016;50.284;18.860;2023-05-03T11:42:25;99058.40;;;14.06;54.34
62057;BME280;48016;50.284;18.860;2023-05-03T11:44:52;99059.80;;;13.91;54.53
62057;BME280;48016;50.284;18.860;2023-05-03T11:47:19;99054.70;;;13.81;54.87
62057;BME280;48016;50.284;18.860;2023-05-03T11:49:56;99058.31;;;13.78;55.07
62057;BME280;48016;50.284;18.860;2023-05-03T11:52:26;99057.60;;;13.78;55.40
62057;BME280;48016;50.284;18.860;2023-05-03T11:54:53;99057.55;;;13.84;55.59
62057;BME280;48016;50.284;18.860;2023-05-03T11:57:19;99057.47;;;13.93;55.17
62057;BME280;48016;50.284;18.860;2023-05-03T11:59:46;99057.31;;;13.94;55.05
62057;BME280;48016;50.284;18.860;2023-05-03T12:02:15;99056.20;;;13.97;54.83
62057;BME280;48016;50.284;18.860;2023-05-03T12:04:43;99055.86;;;13.95;54.68
62057;BME280;48016;50.284;18.860;2023-05-03T12:07:10;99052.33;;;14.02;54.95
62057;BME280;48016;50.284;18.860;2023-05-03T12:09:39;99054.22;;;14.14;54.61
62057;BME280;48016;50.284;18.860;2023-05-03T12:12:06;99052.82;;;14.16;54.00
62057;BME280;48016;50.284;18.860;2023-05-03T12:14:58;99053.78;;;14.21;54.19
62057;BME280;48016;50.284;18.860;2023-05-03T12:17:38;99057.97;;;14.28;54.30
62057;BME280;48016;50.284;18.860;2023-05-03T12:20:13;99055.48;;;14.28;54.26
62057;BME280;48016;50.284;18.860;2023-05-03T12:22:41;99054.98;;;14.31;54.22
62057;BME280;48016;50.284;18.860;2023-05-03T12:25:08;99056.71;;;14.21;53.86
62057;BME280;48016;50.284;18.860;2023-05-03T12:27:34;99054.95;;;14.05;54.35
62057;BME280;48016;50.284;18.860;2023-05-03T12:30:01;99048.34;;;13.95;54.56
62057;BME280;48016;50.284;18.860;2023-05-03T12:32:28;99049.66;;;13.79;54.65
62057;BME280;48016;50.284;18.860;2023-05-03T12:34:55;99046.97;;;13.74;54.93
62057;BME280;48016;50.284;18.860;2023-05-03T12:37:22;99045.36;;;13.77;54.62
62057;BME280;48016;50.284;18.860;2023-05-03T12:39:48;99044.45;;;13.72;54.73
62057;BME280;48016;50.284;18.860;2023-05-03T12:42:15;99038.55;;;13.86;54.63
62057;BME280;48016;50.284;18.860;2023-05-03T12:44:41;99034.76;;;14.01;54.29
62057;BME280;48016;50.284;18.860;2023-05-03T12:47:09;99031.66;;;14.15;53.90
62057;BME280;48016;50.284;18.860;2023-05-03T12:49:36;99034.56;;;14.31;53.25
62057;BME280;48016;50.284;18.860;2023-05-03T12:52:02;99037.08;;;14.36;52.32
62057;BME280;48016;50.284;18.860;2023-05-03T12:54:29;99032.60;;;14.32;52.15
62057;BME280;48016;50.284;18.860;2023-05-03T12:56:56;99030.31;;;14.33;52.02
62057;BME280;48016;50.284;18.860;2023-05-03T12:59:25;99034.35;;;14.42;52.59
62057;BME280;48016;50.284;18.860;2023-05-03T13:01:51;99032.95;;;14.63;52.70
62057;BME280;48016;50.284;18.860;2023-05-03T13:04:18;99029.24;;;14.75;51.58
62057;BME280;48016;50.284;18.860;2023-05-03T13:06:44;99026.69;;;14.88;51.67
62057;BME280;48016;50.284;18.860;2023-05-03T13:09:11;99031.45;;;15.06;51.62
62057;BME280;48016;50.284;18.860;2023-05-03T13:11:38;99028.38;;;15.14;51.47
62057;BME280;48016;50.284;18.860;2023-05-03T13:14:04;99024.27;;;15.17;50.30
62057;BME280;48016;50.284;18.860;2023-05-03T13:16:32;99019.55;;;15.11;49.75
62057;BME280;48016;50.284;18.860;2023-05-03T13:19:01;99018.27;;;15.19;50.59
62057;BME280;48016;50.284;18.860;2023-05-03T13:21:27;99018.83;;;15.21;49.44